General Aviation Weather

Text Reports

Enter one or more of the following location identifiers separated by a space:

Zip Code, Four-Character ICAO or Three-Character IATA airport codes.

METAR - Aviation Routine Weather Report
KE80 - Belen, New Mexico
Updated at 7:15 PM GMT on July 02, 2015 (1:15 PM MDT):
METAR KE80 021915Z AUTO 08006KT 10SM CLR 34/07 A3009 RMK AO2 LTG DSNT N AND SW T03390071
TAF - Terminal Area Forecast
KE80 - Belen, New Mexico
Updated at 7:15 PM GMT on July 02, 2015 (1:15 PM MDT):
No TAF is currently available for this location.
Decoded:
No decoded TAF is available.
PIREP - Pilot Weather Report
KE80 - Belen, New Mexico
Updated at 7:15 PM GMT on July 02, 2015 (1:15 PM MDT):
No PIREP is currently available for this location.
AIRMET - Airmens Meteorological Information
KE80 - Belen, New Mexico
Updated at 7:15 PM GMT on July 02, 2015 (1:15 PM MDT):
No AIRMET is currently available for this location.
SIGMET - Significant Meteorological Information
KE80 - Belen, New Mexico
Updated at 7:15 PM GMT on July 02, 2015 (1:15 PM MDT):
No SIGMET is currently available for this location.
NOTAM - Notice to Airmen
KE80 - Belen, New Mexico
Updated at 7:15 PM GMT on July 02, 2015 (1:15 PM MDT):
No NOTAM is currently available for this location.
Forecast Area
KE80 - Belen, New Mexico
Updated at 7:15 PM GMT on July 02, 2015 (1:15 PM MDT):
No NOTAM is currently available for this location.
Aviation Weather Maps